createdAt,value
2022-12-03T00:00:52.498Z,102758.84
2022-12-03T00:03:53.921Z,102756.28
2022-12-03T00:06:55.282Z,102754.53
2022-12-03T00:09:56.559Z,102751.97
2022-12-03T00:12:57.847Z,102751.97
2022-12-03T00:15:59.230Z,102747.72
2022-12-03T00:19:00.520Z,102747.69
2022-12-03T00:22:01.787Z,102740.84
2022-12-03T00:25:03.062Z,102741.72
2022-12-03T00:28:04.401Z,102739.09
2022-12-03T00:31:06.208Z,102744.16
2022-12-03T00:34:07.488Z,102747.53
2022-12-03T00:37:08.760Z,102747.50
2022-12-03T00:40:11.053Z,102747.47
2022-12-03T00:43:12.319Z,102747.47
2022-12-03T00:46:18.156Z,102749.94
2022-12-03T00:49:22.249Z,102750.00
2022-12-03T00:52:23.492Z,102746.53
2022-12-03T00:55:24.718Z,102745.72
2022-12-03T00:58:25.957Z,102743.13
2022-12-03T01:01:27.254Z,102751.59
2022-12-03T01:04:28.581Z,102747.34
2022-12-03T01:07:29.910Z,102750.69
2022-12-03T01:10:31.206Z,102752.41
2022-12-03T01:13:32.470Z,102744.75
2022-12-03T01:16:33.877Z,102749.81
2022-12-03T01:19:35.348Z,102744.72
2022-12-03T01:22:36.629Z,102743.84
2022-12-03T01:25:37.881Z,102735.34
2022-12-03T01:28:39.120Z,102744.66
2022-12-03T01:31:40.457Z,102749.75
2022-12-03T01:34:42.174Z,102745.50
2022-12-03T01:37:43.484Z,102752.28
2022-12-03T01:40:44.762Z,102749.72
2022-12-03T01:43:46.315Z,102758.16
2022-12-03T01:46:48.233Z,102753.06
2022-12-03T01:49:52.824Z,102753.94
2022-12-03T01:52:55.584Z,102753.03
2022-12-03T01:55:56.839Z,102752.09
2022-12-03T01:58:58.107Z,102765.69
2022-12-03T02:02:00.268Z,102766.50
2022-12-03T02:05:05.804Z,102761.41
2022-12-03T02:08:25.692Z,102754.56
2022-12-03T02:11:31.599Z,102758.75
2022-12-03T02:14:32.857Z,102751.06
2022-12-03T02:17:34.195Z,102756.97
2022-12-03T02:20:39.435Z,102765.41
2022-12-03T02:23:45.452Z,102751.75
2022-12-03T02:26:46.772Z,102751.78
2022-12-03T02:29:48.137Z,102750.06
2022-12-03T02:32:50.552Z,102751.78
2022-12-03T02:35:51.836Z,102756.84
2022-12-03T02:38:53.264Z,102754.31
2022-12-03T02:41:54.535Z,102755.09
2022-12-03T02:45:00.792Z,102762.72
2022-12-03T02:48:08.377Z,102756.72
2022-12-03T02:51:10.665Z,102752.41
2022-12-03T02:54:11.926Z,102751.47
2022-12-03T02:57:14.651Z,102740.38
2022-12-03T03:00:16.846Z,102744.59
2022-12-03T03:03:18.622Z,102745.47
2022-12-03T03:06:20.670Z,102762.38
2022-12-03T03:09:22.233Z,102752.06
2022-12-03T03:12:23.490Z,102763.91
2022-12-03T03:15:24.819Z,102763.06
2022-12-03T03:18:26.079Z,102765.53
2022-12-03T03:21:27.459Z,102751.88
2022-12-03T03:24:28.760Z,102759.53
2022-12-03T03:27:30.243Z,102758.59
2022-12-03T03:30:32.075Z,102760.31
2022-12-03T03:33:33.802Z,102759.50
2022-12-03T03:36:35.376Z,102756.00
2022-12-03T03:39:36.683Z,102756.81
2022-12-03T03:42:38.253Z,102757.66
2022-12-03T03:45:39.632Z,102751.72
2022-12-03T03:48:42.932Z,102748.22
2022-12-03T03:51:44.436Z,102751.69
2022-12-03T03:54:46.564Z,102746.56
2022-12-03T03:57:48.202Z,102737.22
2022-12-03T04:00:51.346Z,102752.47
2022-12-03T04:03:52.707Z,102751.59
2022-12-03T04:06:54.032Z,102744.78
2022-12-03T04:09:55.326Z,102746.47
2022-12-03T04:12:56.634Z,102744.69
2022-12-03T04:15:57.897Z,102731.97
2022-12-03T04:18:59.165Z,102737.06
2022-12-03T04:22:00.440Z,102736.28
2022-12-03T04:25:01.725Z,102736.28
2022-12-03T04:28:02.970Z,102738.78
2022-12-03T04:31:04.337Z,102734.59
2022-12-03T04:34:05.661Z,102737.19
2022-12-03T04:37:06.921Z,102733.75
2022-12-03T04:40:08.507Z,102733.72
2022-12-03T04:43:09.777Z,102740.47
2022-12-03T04:46:11.107Z,102735.41
2022-12-03T04:49:12.459Z,102734.53
2022-12-03T04:52:14.518Z,102743.84
2022-12-03T04:55:15.778Z,102748.94
2022-12-03T04:58:17.056Z,102757.44
2022-12-03T05:01:18.337Z,102746.31
2022-12-03T05:04:19.590Z,102755.72
2022-12-03T05:07:20.830Z,102759.16
2022-12-03T05:10:22.119Z,102754.09
2022-12-03T05:13:23.375Z,102745.59
2022-12-03T05:16:24.748Z,102744.75
2022-12-03T05:19:26.039Z,102743.91
2022-12-03T05:22:27.321Z,102744.69
2022-12-03T05:25:28.711Z,102743.84
2022-12-03T05:28:30.067Z,102742.94
2022-12-03T05:31:31.465Z,102742.03
2022-12-03T05:34:32.759Z,102746.25
2022-12-03T05:37:34.035Z,102741.09
2022-12-03T05:40:35.343Z,102735.16
2022-12-03T05:43:36.612Z,102730.00
2022-12-03T05:46:37.942Z,102735.91
2022-12-03T05:49:39.288Z,102734.19
2022-12-03T05:52:40.549Z,102731.56
2022-12-03T05:55:41.932Z,102728.13
2022-12-03T05:58:43.235Z,102718.78
2022-12-03T06:01:44.528Z,102729.88
2022-12-03T06:04:45.773Z,102719.69
2022-12-03T06:07:47.553Z,102717.09
2022-12-03T06:10:48.866Z,102712.75
2022-12-03T06:13:50.131Z,102719.41
2022-12-03T06:16:51.388Z,102722.00
2022-12-03T06:19:53.113Z,102723.69
2022-12-03T06:22:54.348Z,102722.72
2022-12-03T06:25:55.740Z,102715.94
2022-12-03T06:28:56.982Z,102717.63
2022-12-03T06:31:58.281Z,102717.66
2022-12-03T06:34:59.535Z,102715.09
2022-12-03T06:38:00.826Z,102710.00
2022-12-03T06:41:02.169Z,102698.94
2022-12-03T06:44:03.435Z,102701.47
2022-12-03T06:47:04.718Z,102710.00
2022-12-03T06:50:07.202Z,102710.00
2022-12-03T06:53:08.520Z,102707.47
2022-12-03T06:56:09.821Z,102710.84
2022-12-03T06:59:11.080Z,102708.25
2022-12-03T07:02:12.454Z,102718.34
2022-12-03T07:05:13.801Z,102709.03
2022-12-03T07:08:15.145Z,102716.59
2022-12-03T07:11:16.542Z,102710.66
2022-12-03T07:14:17.831Z,102708.06
2022-12-03T07:17:19.212Z,102713.19
2022-12-03T07:20:20.459Z,102704.78
2022-12-03T07:23:21.768Z,102714.03
2022-12-03T07:26:23.009Z,102720.03
2022-12-03T07:29:24.476Z,102707.28
2022-12-03T07:32:25.761Z,102711.53
2022-12-03T07:35:27.057Z,102726.84
2022-12-03T07:38:28.345Z,102722.56
2022-12-03T07:41:29.738Z,102717.47
2022-12-03T07:44:31.177Z,102715.66
2022-12-03T07:47:32.458Z,102718.16
2022-12-03T07:50:33.741Z,102713.91
2022-12-03T07:53:35.035Z,102721.56
2022-12-03T07:56:36.315Z,102713.03
2022-12-03T07:59:37.593Z,102709.59
2022-12-03T08:02:38.925Z,102708.69
2022-12-03T08:05:40.264Z,102717.94
2022-12-03T08:08:41.678Z,102717.09
2022-12-03T08:11:44.011Z,102708.66
2022-12-03T08:14:45.743Z,102712.00
2022-12-03T08:17:51.482Z,102706.13
2022-12-03T08:20:52.802Z,102705.28
2022-12-03T08:23:55.564Z,102699.31
2022-12-03T08:26:56.894Z,102701.91
2022-12-03T08:30:01.183Z,102701.16
2022-12-03T08:33:06.390Z,102704.53
2022-12-03T08:36:18.761Z,102697.63
2022-12-03T08:39:33.386Z,102697.75
2022-12-03T08:42:34.651Z,102697.81
2022-12-03T08:45:36.675Z,102697.06
2022-12-03T08:48:38.256Z,102691.19
2022-12-03T08:51:39.539Z,102683.44
2022-12-03T08:54:41.614Z,102685.16
2022-12-03T08:57:42.872Z,102678.50
2022-12-03T09:00:44.174Z,102673.41
2022-12-03T09:03:52.371Z,102682.88
2022-12-03T09:06:54.353Z,102680.31
2022-12-03T09:09:55.610Z,102682.91
2022-12-03T09:12:56.876Z,102681.03
2022-12-03T09:15:58.151Z,102686.00
2022-12-03T09:19:00.730Z,102682.81
2022-12-03T09:22:01.972Z,102680.44
2022-12-03T09:25:03.325Z,102678.00
2022-12-03T09:28:04.582Z,102669.53
2022-12-03T09:31:06.195Z,102670.34
2022-12-03T09:34:07.879Z,102668.09
2022-12-03T09:37:09.367Z,102665.75
2022-12-03T09:40:10.931Z,102660.66
2022-12-03T09:43:12.460Z,102670.00
2022-12-03T09:46:13.799Z,102657.34
2022-12-03T09:49:16.443Z,102659.09
2022-12-03T09:52:23.232Z,102647.25
2022-12-03T09:55:27.700Z,102649.72
2022-12-03T09:58:34.305Z,102643.59
2022-12-03T10:01:36.219Z,102646.38
2022-12-03T10:04:37.589Z,102644.88
2022-12-03T10:07:39.302Z,102636.38
2022-12-03T10:10:41.624Z,102639.63
2022-12-03T10:13:43.075Z,102630.44
2022-12-03T10:16:44.618Z,102627.19
2022-12-03T10:19:45.995Z,102625.63
2022-12-03T10:22:47.237Z,102617.13
2022-12-03T10:25:55.947Z,102617.16
2022-12-03T10:28:57.199Z,102624.94
2022-12-03T10:32:03.431Z,102617.38
2022-12-03T10:35:23.863Z,102606.34
2022-12-03T10:38:27.596Z,102613.13
2022-12-03T10:41:28.904Z,102609.63
2022-12-03T10:44:30.186Z,102603.78
2022-12-03T10:47:31.637Z,102609.03
2022-12-03T10:50:34.557Z,102594.59
2022-12-03T10:53:37.301Z,102591.22
2022-12-03T10:56:38.606Z,102591.34
2022-12-03T10:59:41.361Z,102592.25
2022-12-03T11:02:42.618Z,102594.03
2022-12-03T11:05:43.947Z,102585.50
2022-12-03T11:08:49.200Z,102587.25
2022-12-03T11:11:53.207Z,102583.13
2022-12-03T11:14:54.780Z,102588.19
2022-12-03T11:17:56.261Z,102581.38
2022-12-03T11:20:57.496Z,102581.41
2022-12-03T11:23:58.743Z,102579.75
2022-12-03T11:27:00.097Z,102572.13
2022-12-03T11:30:01.467Z,102569.59
2022-12-03T11:33:02.774Z,102561.94
2022-12-03T11:36:04.065Z,102563.69
2022-12-03T11:39:08.027Z,102558.44
2022-12-03T11:42:21.571Z,102551.56
2022-12-03T11:45:29.523Z,102548.09
2022-12-03T11:48:30.843Z,102538.66
2022-12-03T11:51:32.236Z,102551.31
2022-12-03T11:54:34.332Z,102538.56
2022-12-03T11:57:37.151Z,102536.00
2022-12-03T12:00:38.579Z,102534.28
2022-12-03T12:03:44.752Z,102533.53
2022-12-03T12:06:48.768Z,102536.97
2022-12-03T12:09:55.160Z,102529.31
2022-12-03T12:12:56.701Z,102527.72
2022-12-03T12:15:58.616Z,102531.16
2022-12-03T12:19:19.932Z,102520.88
2022-12-03T12:22:24.237Z,102514.16
2022-12-03T12:25:36.117Z,102506.50
2022-12-03T12:28:37.425Z,102497.13
2022-12-03T12:31:38.795Z,102492.00
2022-12-03T12:34:41.402Z,102484.28
2022-12-03T12:37:49.299Z,102498.69
2022-12-03T12:40:54.730Z,102484.25
2022-12-03T12:43:56.003Z,102486.78
2022-12-03T12:46:59.319Z,102476.59
2022-12-03T12:50:01.235Z,102477.53
2022-12-03T12:53:08.335Z,102470.84
2022-12-03T12:56:28.132Z,102471.50
2022-12-03T12:59:29.442Z,102480.78
2022-12-03T13:02:30.740Z,102465.53
2022-12-03T13:05:37.986Z,102471.53
2022-12-03T13:08:41.390Z,102459.59
2022-12-03T13:11:43.998Z,102462.25
2022-12-03T13:14:45.444Z,102458.94
2022-12-03T13:17:46.693Z,102466.47
2022-12-03T13:20:48.169Z,102463.00
2022-12-03T13:23:56.294Z,102464.72
2022-12-03T13:26:58.055Z,102455.50
2022-12-03T13:30:08.275Z,102453.00
2022-12-03T13:33:14.272Z,102457.16
2022-12-03T13:36:16.205Z,102461.47
2022-12-03T13:39:20.348Z,102452.13
2022-12-03T13:42:21.622Z,102452.00
2022-12-03T13:45:22.861Z,102453.72
2022-12-03T13:48:26.119Z,102456.19
2022-12-03T13:51:31.569Z,102445.13
2022-12-03T13:54:33.269Z,102455.34
2022-12-03T13:57:34.513Z,102451.13
2022-12-03T14:00:35.914Z,102454.47
2022-12-03T14:03:37.249Z,102452.63
2022-12-03T14:06:38.532Z,102443.31
2022-12-03T14:09:39.822Z,102447.47
2022-12-03T14:12:41.141Z,102455.91
2022-12-03T14:15:42.432Z,102451.69
2022-12-03T14:18:44.432Z,102436.47
2022-12-03T14:21:45.698Z,102438.94
2022-12-03T14:24:47.785Z,102431.28
2022-12-03T14:27:49.021Z,102433.00
2022-12-03T14:30:50.273Z,102433.69
2022-12-03T14:33:51.510Z,102432.03
2022-12-03T14:36:52.782Z,102429.47
2022-12-03T14:39:54.381Z,102435.41
2022-12-03T14:42:55.874Z,102427.75
2022-12-03T14:45:57.196Z,102430.25
2022-12-03T14:48:58.571Z,102426.81
2022-12-03T14:51:59.971Z,102421.78
2022-12-03T14:55:01.359Z,102422.53
2022-12-03T14:58:02.631Z,102419.19
2022-12-03T15:01:03.998Z,102423.41
2022-12-03T15:04:05.294Z,102423.31
2022-12-03T15:07:06.727Z,102431.75
2022-12-03T15:10:08.205Z,102428.34
2022-12-03T15:13:09.475Z,102429.22
2022-12-03T15:16:10.808Z,102429.19
2022-12-03T15:19:12.240Z,102432.56
2022-12-03T15:22:13.532Z,102438.53
2022-12-03T15:25:14.820Z,102437.66
2022-12-03T15:28:16.191Z,102431.72
2022-12-03T15:31:17.512Z,102435.09
2022-12-03T15:34:22.495Z,102434.22
2022-12-03T15:37:24.005Z,102427.44
2022-12-03T15:40:25.761Z,102424.03
2022-12-03T15:43:27.013Z,102426.50
2022-12-03T15:46:28.689Z,102421.38
2022-12-03T15:49:30.084Z,102419.63
2022-12-03T15:52:31.344Z,102420.50
2022-12-03T15:55:33.728Z,102416.22
2022-12-03T15:58:35.054Z,102422.16
2022-12-03T16:01:36.413Z,102411.06
2022-12-03T16:04:37.737Z,102422.16
2022-12-03T16:07:39.418Z,102411.94
2022-12-03T16:10:40.762Z,102417.88
2022-12-03T16:13:42.003Z,102416.09
2022-12-03T16:16:43.276Z,102413.50
2022-12-03T16:19:44.525Z,102413.47
2022-12-03T16:22:45.783Z,102411.66
2022-12-03T16:25:47.047Z,102420.91
2022-12-03T16:28:48.306Z,102417.47
2022-12-03T16:31:49.567Z,102418.31
2022-12-03T16:34:50.824Z,102415.75
2022-12-03T16:37:52.098Z,102421.75
2022-12-03T16:40:53.355Z,102411.56
2022-12-03T16:43:54.619Z,102409.84
2022-12-03T16:46:55.977Z,102408.13
2022-12-03T16:49:57.336Z,102403.84
2022-12-03T16:52:58.591Z,102406.44
2022-12-03T16:56:00.097Z,102409.78
2022-12-03T16:59:01.335Z,102406.41
2022-12-03T17:02:02.718Z,102410.59
2022-12-03T17:05:04.091Z,102411.47
2022-12-03T17:08:05.514Z,102413.16
2022-12-03T17:11:06.984Z,102423.31
2022-12-03T17:14:08.360Z,102416.50
2022-12-03T17:17:09.616Z,102412.25
2022-12-03T17:20:10.924Z,102411.44
2022-12-03T17:23:12.249Z,102415.66
2022-12-03T17:26:13.634Z,102410.59
2022-12-03T17:29:14.898Z,102405.47
2022-12-03T17:32:16.158Z,102396.97
2022-12-03T17:35:18.070Z,102394.41
2022-12-03T17:38:19.333Z,102388.50
2022-12-03T17:41:20.581Z,102383.38
2022-12-03T17:44:24.282Z,102389.38
2022-12-03T17:47:25.534Z,102380.97
2022-12-03T17:50:26.771Z,102386.91
2022-12-03T17:53:28.071Z,102382.66
2022-12-03T17:56:29.315Z,102377.56
2022-12-03T17:59:30.578Z,102382.69
2022-12-03T18:02:31.806Z,102380.13
2022-12-03T18:05:33.079Z,102381.84
2022-12-03T18:08:34.339Z,102383.56
2022-12-03T18:11:35.627Z,102382.72
2022-12-03T18:14:36.882Z,102381.91
2022-12-03T18:17:38.147Z,102390.44
2022-12-03T18:20:39.442Z,102385.38
2022-12-03T18:23:40.869Z,102382.81
2022-12-03T18:26:42.135Z,102378.59
2022-12-03T18:29:43.398Z,102382.88
2022-12-03T18:32:44.675Z,102384.59
2022-12-03T18:35:45.984Z,102387.19
2022-12-03T18:38:48.182Z,102382.06
2022-12-03T18:41:49.498Z,102393.97
2022-12-03T18:44:51.847Z,102398.28
2022-12-03T18:47:53.124Z,102388.94
2022-12-03T18:50:54.484Z,102395.72
2022-12-03T18:53:56.006Z,102392.38
2022-12-03T18:56:57.316Z,102387.31
2022-12-03T18:59:58.847Z,102383.88
2022-12-03T19:03:03.603Z,102383.88
2022-12-03T19:06:05.389Z,102381.34
2022-12-03T19:09:06.699Z,102377.97
2022-12-03T19:12:14.462Z,102383.06
2022-12-03T19:15:16.091Z,102380.47
2022-12-03T19:18:17.886Z,102371.94
2022-12-03T19:21:19.158Z,102377.03
2022-12-03T19:24:25.142Z,102383.00
2022-12-03T19:27:28.109Z,102373.66
2022-12-03T19:30:29.367Z,102384.63
2022-12-03T19:33:31.111Z,102378.53
2022-12-03T19:36:32.377Z,102378.38
2022-12-03T19:39:33.763Z,102367.28
2022-12-03T19:42:35.023Z,102370.66
2022-12-03T19:45:36.657Z,102374.84
2022-12-03T19:48:39.266Z,102385.78
2022-12-03T19:51:40.528Z,102390.88
2022-12-03T19:54:41.824Z,102394.25
2022-12-03T19:57:43.099Z,102390.03
2022-12-03T20:00:44.351Z,102391.69
2022-12-03T20:03:46.964Z,102388.34
2022-12-03T20:06:48.233Z,102391.69
2022-12-03T20:09:50.047Z,102392.56
2022-12-03T20:12:51.322Z,102395.03
2022-12-03T20:15:52.594Z,102387.47
2022-12-03T20:18:58.716Z,102393.34
2022-12-03T20:22:02.847Z,102389.09
2022-12-03T20:25:04.551Z,102396.69
2022-12-03T20:28:05.820Z,102394.09
2022-12-03T20:31:08.305Z,102395.78
2022-12-03T20:34:09.948Z,102396.66
2022-12-03T20:37:11.224Z,102394.13
2022-12-03T20:40:12.581Z,102395.75
2022-12-03T20:43:13.971Z,102399.03
2022-12-03T20:46:16.932Z,102395.66
2022-12-03T20:49:18.365Z,102390.56
2022-12-03T20:52:19.617Z,102385.50
2022-12-03T20:55:20.930Z,102393.84
2022-12-03T20:58:22.210Z,102385.34
2022-12-03T21:01:24.827Z,102381.06
2022-12-03T21:04:26.210Z,102384.50
2022-12-03T21:07:27.682Z,102388.50
2022-12-03T21:10:29.008Z,102392.69
2022-12-03T21:13:32.423Z,102388.47
2022-12-03T21:16:59.682Z,102391.97
2022-12-03T21:19:55.565Z,102395.34
2022-12-03T21:22:57.002Z,102392.78
2022-12-03T21:26:06.155Z,102394.38
2022-12-03T21:29:07.463Z,102395.22
2022-12-03T21:32:08.772Z,102396.84
2022-12-03T21:35:10.023Z,102395.00
2022-12-03T21:38:11.323Z,102395.84
2022-12-03T21:41:12.625Z,102399.22
2022-12-03T21:44:13.916Z,102394.84
2022-12-03T21:47:15.240Z,102405.00
2022-12-03T21:50:16.880Z,102398.19
2022-12-03T21:53:18.176Z,102405.75
2022-12-03T21:56:19.925Z,102405.69
2022-12-03T21:59:21.277Z,102400.69
2022-12-03T22:02:22.603Z,102403.13
2022-12-03T22:05:23.938Z,102403.03
2022-12-03T22:08:25.227Z,102403.94
2022-12-03T22:11:26.498Z,102398.66
2022-12-03T22:14:28.281Z,102400.19
2022-12-03T22:17:29.569Z,102402.75
2022-12-03T22:20:30.866Z,102402.75
2022-12-03T22:23:32.517Z,102405.28
2022-12-03T22:26:35.254Z,102409.44
2022-12-03T22:29:36.662Z,102402.56
2022-12-03T22:32:37.930Z,102395.59
2022-12-03T22:35:39.187Z,102395.44
2022-12-03T22:38:40.450Z,102396.22
2022-12-03T22:41:41.707Z,102397.75
2022-12-03T22:44:42.978Z,102396.00
2022-12-03T22:47:44.278Z,102396.09
2022-12-03T22:50:46.305Z,102395.34
2022-12-03T22:53:48.079Z,102397.13
2022-12-03T22:56:49.374Z,102393.03
2022-12-03T22:59:50.655Z,102394.78
2022-12-03T23:02:51.984Z,102383.69
2022-12-03T23:05:53.311Z,102382.13
2022-12-03T23:08:55.106Z,102383.00
2022-12-03T23:11:56.411Z,102385.63
2022-12-03T23:14:57.687Z,102386.44
2022-12-03T23:17:59.023Z,102388.19
2022-12-03T23:21:00.612Z,102378.09
2022-12-03T23:24:02.967Z,102369.72
2022-12-03T23:27:04.247Z,102370.53
2022-12-03T23:30:05.909Z,102378.03
2022-12-03T23:33:07.196Z,102372.19
2022-12-03T23:36:08.687Z,102363.78
2022-12-03T23:39:10.114Z,102362.06
2022-12-03T23:42:11.371Z,102357.94
2022-12-03T23:45:12.649Z,102360.47
2022-12-03T23:48:13.977Z,102369.72
2022-12-03T23:51:17.248Z,102367.00
2022-12-03T23:54:18.528Z,102367.09
2022-12-03T23:57:19.809Z,102368.84
